createdAt,value
2023-03-17T00:01:53.948Z,16.30
2023-03-17T00:04:22.211Z,15.60
2023-03-17T00:06:48.810Z,15.50
2023-03-17T00:09:16.467Z,15.10
2023-03-17T00:11:43.683Z,17.40
2023-03-17T00:14:10.780Z,17.80
2023-03-17T00:16:39.208Z,18.50
2023-03-17T00:19:05.790Z,17.30
2023-03-17T00:21:33.739Z,17.30
2023-03-17T00:24:01.069Z,16.80
2023-03-17T00:26:28.342Z,18.60
2023-03-17T00:28:55.156Z,18.60
2023-03-17T00:31:24.694Z,17.90
2023-03-17T00:33:52.314Z,18.80
2023-03-17T00:36:21.049Z,16.60
2023-03-17T00:38:48.102Z,17.30
2023-03-17T00:41:15.820Z,17.50
2023-03-17T00:43:42.419Z,17.00
2023-03-17T00:46:11.665Z,17.20
2023-03-17T00:48:38.143Z,17.50
2023-03-17T00:51:04.690Z,16.80
2023-03-17T00:53:31.123Z,19.40
2023-03-17T00:55:57.567Z,19.20
2023-03-17T00:58:31.954Z,18.00
2023-03-17T01:00:59.327Z,18.50
2023-03-17T01:03:27.439Z,18.70
2023-03-17T01:05:57.459Z,20.60
2023-03-17T01:08:25.113Z,22.40
2023-03-17T01:10:51.943Z,19.80
2023-03-17T01:13:18.389Z,18.80
2023-03-17T01:15:45.952Z,18.90
2023-03-17T01:18:13.514Z,17.80
2023-03-17T01:20:40.243Z,17.60
2023-03-17T01:23:06.875Z,19.30
2023-03-17T01:25:33.745Z,17.80
2023-03-17T01:28:00.294Z,18.90
2023-03-17T01:30:29.219Z,20.00
2023-03-17T01:32:56.865Z,19.00
2023-03-17T01:35:26.415Z,19.30
2023-03-17T01:37:52.792Z,19.10
2023-03-17T01:40:21.664Z,18.00
2023-03-17T01:42:51.950Z,18.20
2023-03-17T01:45:38.063Z,18.00
2023-03-17T01:48:05.227Z,18.20
2023-03-17T01:50:31.900Z,17.10
2023-03-17T01:52:58.601Z,18.30
2023-03-17T01:55:25.032Z,19.20
2023-03-17T01:57:55.872Z,18.60
2023-03-17T02:00:24.245Z,18.40
2023-03-17T02:02:52.127Z,17.70
2023-03-17T02:05:23.462Z,17.70
2023-03-17T02:07:50.626Z,18.10
2023-03-17T02:10:18.813Z,16.70
2023-03-17T02:12:47.786Z,16.80
2023-03-17T02:15:14.939Z,18.00
2023-03-17T02:17:41.849Z,17.00
2023-03-17T02:20:14.132Z,16.60
2023-03-17T02:22:41.682Z,16.50
2023-03-17T02:25:08.356Z,15.70
2023-03-17T02:27:38.007Z,17.90
2023-03-17T02:36:12.072Z,15.80
2023-03-17T02:38:39.921Z,16.90
2023-03-17T02:41:09.953Z,15.00
2023-03-17T02:43:38.319Z,15.80
2023-03-17T02:46:06.214Z,15.70
2023-03-17T02:48:35.064Z,15.00
2023-03-17T02:51:03.256Z,16.40
2023-03-17T02:53:31.495Z,16.00
2023-03-17T02:55:59.410Z,15.70
2023-03-17T02:58:27.371Z,17.70
2023-03-17T03:00:55.196Z,17.00
2023-03-17T03:03:22.989Z,17.30
2023-03-17T03:05:51.202Z,15.20
2023-03-17T03:08:19.149Z,15.70
2023-03-17T03:10:47.139Z,15.20
2023-03-17T03:13:15.197Z,15.60
2023-03-17T03:15:43.846Z,15.70
2023-03-17T03:18:12.512Z,14.70
2023-03-17T03:20:42.556Z,13.50
2023-03-17T03:23:10.702Z,14.90
2023-03-17T03:25:38.830Z,13.70
2023-03-17T03:28:08.328Z,14.60
2023-03-17T03:30:36.897Z,14.10
2023-03-17T03:33:04.875Z,14.20
2023-03-17T03:35:32.931Z,15.20
2023-03-17T03:38:02.274Z,14.70
2023-03-17T03:40:30.412Z,14.80
2023-03-17T03:42:58.760Z,13.30
2023-03-17T03:45:27.168Z,14.60
2023-03-17T03:47:55.444Z,13.20
2023-03-17T03:50:23.251Z,12.60
2023-03-17T03:52:51.642Z,13.50
2023-03-17T03:55:19.610Z,12.40
2023-03-17T03:57:47.449Z,13.50
2023-03-17T04:00:15.708Z,15.00
2023-03-17T04:02:47.634Z,14.70
2023-03-17T04:05:17.414Z,13.70
2023-03-17T04:07:45.942Z,11.90
2023-03-17T04:10:14.608Z,11.20
2023-03-17T04:12:42.533Z,11.50
2023-03-17T04:15:11.601Z,12.80
2023-03-17T04:17:39.611Z,12.10
2023-03-17T04:20:07.635Z,11.60
2023-03-17T04:22:35.589Z,12.00
2023-03-17T04:25:03.469Z,12.30
2023-03-17T04:27:31.299Z,11.90
2023-03-17T04:29:59.096Z,12.40
2023-03-17T04:32:27.645Z,16.40
2023-03-17T04:34:56.249Z,13.40
2023-03-17T04:37:25.037Z,13.20
2023-03-17T04:39:53.516Z,12.10
2023-03-17T04:42:21.354Z,11.50
2023-03-17T04:44:49.255Z,11.60
2023-03-17T04:47:17.088Z,12.20
2023-03-17T04:49:45.003Z,11.00
2023-03-17T04:52:12.866Z,12.90
2023-03-17T04:54:41.135Z,12.60
2023-03-17T04:57:09.638Z,11.50
2023-03-17T04:59:37.480Z,12.20
2023-03-17T05:02:05.410Z,14.10
2023-03-17T05:04:33.769Z,11.50
2023-03-17T05:07:03.003Z,11.20
2023-03-17T05:09:30.890Z,11.20
2023-03-17T05:11:58.689Z,11.80
2023-03-17T05:14:26.471Z,12.30
2023-03-17T05:16:54.392Z,10.90
2023-03-17T05:19:22.269Z,13.00
2023-03-17T05:21:50.097Z,13.80
2023-03-17T05:24:17.972Z,16.30
2023-03-17T05:26:46.521Z,16.70
2023-03-17T05:29:14.933Z,12.90
2023-03-17T05:31:44.061Z,13.60
2023-03-17T05:34:11.901Z,19.40
2023-03-17T05:36:56.657Z,14.20
2023-03-17T05:39:24.627Z,12.80
2023-03-17T05:41:52.438Z,13.00
2023-03-17T05:44:21.386Z,12.30
2023-03-17T05:46:49.544Z,12.50
2023-03-17T05:49:18.822Z,11.40
2023-03-17T05:51:46.764Z,11.50
2023-03-17T05:54:14.645Z,13.30
2023-03-17T05:56:59.298Z,14.60
2023-03-17T05:59:27.312Z,12.80
2023-03-17T06:01:55.143Z,12.10
2023-03-17T06:04:23.054Z,10.60
2023-03-17T06:06:51.088Z,13.20
2023-03-17T06:09:19.594Z,11.20
2023-03-17T06:11:47.511Z,11.50
2023-03-17T06:14:15.809Z,11.50
2023-03-17T06:16:44.003Z,11.50
2023-03-17T06:19:12.403Z,11.10
2023-03-17T06:21:40.361Z,11.90
2023-03-17T06:24:09.757Z,13.10
2023-03-17T06:26:37.680Z,14.10
2023-03-17T06:29:09.434Z,11.10
2023-03-17T06:31:37.390Z,11.60
2023-03-17T06:34:05.730Z,10.60
2023-03-17T06:36:33.952Z,10.90
2023-03-17T06:39:02.325Z,11.10
2023-03-17T06:41:30.309Z,10.70
2023-03-17T06:43:58.597Z,10.00
2023-03-17T06:52:44.054Z,11.10
2023-03-17T06:55:12.973Z,11.70
2023-03-17T06:57:43.633Z,10.80
2023-03-17T07:00:14.334Z,11.10
2023-03-17T07:02:43.259Z,12.40
2023-03-17T07:05:14.045Z,12.20
2023-03-17T07:07:41.977Z,11.40
2023-03-17T07:10:16.003Z,11.30
2023-03-17T07:12:48.865Z,10.70
2023-03-17T07:15:17.407Z,11.00
2023-03-17T07:17:47.075Z,11.00
2023-03-17T07:20:15.078Z,12.50
2023-03-17T07:22:43.001Z,12.10
2023-03-17T07:25:11.107Z,13.00
2023-03-17T07:27:39.168Z,11.30
2023-03-17T07:30:07.570Z,10.00
2023-03-17T07:32:35.572Z,9.50
2023-03-17T07:35:05.821Z,9.30
2023-03-17T07:37:40.501Z,9.80
2023-03-17T07:40:10.419Z,9.70
2023-03-17T07:42:39.211Z,9.50
2023-03-17T07:45:08.030Z,9.00
2023-03-17T07:47:35.977Z,9.50
2023-03-17T07:50:03.928Z,9.10
2023-03-17T07:52:32.285Z,8.90
2023-03-17T07:55:00.194Z,8.70
2023-03-17T07:57:28.831Z,8.30
2023-03-17T07:59:56.753Z,7.80
2023-03-17T08:02:25.194Z,8.90
2023-03-17T08:04:54.439Z,8.10
2023-03-17T08:07:22.537Z,7.70
2023-03-17T08:09:50.466Z,7.90
2023-03-17T08:12:18.465Z,8.20
2023-03-17T08:14:46.717Z,8.50
2023-03-17T08:17:15.302Z,7.60
2023-03-17T08:19:44.236Z,7.80
2023-03-17T08:22:12.637Z,8.30
2023-03-17T08:24:43.729Z,7.60
2023-03-17T08:27:11.895Z,7.60
2023-03-17T08:29:39.968Z,7.10
2023-03-17T08:32:08.852Z,5.90
2023-03-17T08:34:37.481Z,6.80
2023-03-17T08:37:10.048Z,6.20
2023-03-17T08:39:39.506Z,5.50
2023-03-17T08:42:07.477Z,5.70
2023-03-17T08:44:35.323Z,5.70
2023-03-17T08:47:03.754Z,6.20
2023-03-17T08:49:34.747Z,6.40
2023-03-17T08:52:03.621Z,5.70
2023-03-17T08:54:31.625Z,5.40
2023-03-17T08:57:01.966Z,5.70
2023-03-17T08:59:30.959Z,6.20
2023-03-17T09:01:58.782Z,7.20
2023-03-17T09:04:26.809Z,4.90
2023-03-17T09:07:03.700Z,4.90
2023-03-17T09:09:34.894Z,5.40
2023-03-17T09:12:04.593Z,5.60
2023-03-17T09:14:42.863Z,5.30
2023-03-17T09:17:14.286Z,4.80
2023-03-17T09:19:43.884Z,5.70
2023-03-17T09:22:13.558Z,4.60
2023-03-17T09:24:41.537Z,5.50
2023-03-17T09:27:09.550Z,4.30
2023-03-17T09:29:37.573Z,5.70
2023-03-17T09:32:05.682Z,4.40
2023-03-17T09:34:36.519Z,5.30
2023-03-17T09:37:04.453Z,5.30
2023-03-17T09:39:33.651Z,4.30
2023-03-17T09:42:06.447Z,4.90
2023-03-17T09:44:34.506Z,4.30
2023-03-17T09:47:05.547Z,4.60
2023-03-17T09:49:59.860Z,4.90
2023-03-17T09:52:32.471Z,4.20
2023-03-17T09:55:03.534Z,5.20
2023-03-17T09:57:38.655Z,4.90
2023-03-17T10:00:19.518Z,5.20
2023-03-17T10:02:47.525Z,4.60
2023-03-17T10:05:22.058Z,5.00
2023-03-17T10:08:27.090Z,5.70
2023-03-17T10:11:15.305Z,5.90
2023-03-17T10:13:53.473Z,5.80
2023-03-17T10:16:23.411Z,5.90
2023-03-17T10:18:56.823Z,5.80
2023-03-17T10:21:27.411Z,5.10
2023-03-17T10:23:58.012Z,5.20
2023-03-17T10:26:26.487Z,5.30
2023-03-17T10:28:57.196Z,6.60
2023-03-17T10:31:29.720Z,10.30
2023-03-17T10:33:59.153Z,6.80
2023-03-17T10:36:35.648Z,5.40
2023-03-17T10:39:08.717Z,5.20
2023-03-17T10:41:41.122Z,4.40
2023-03-17T10:44:11.086Z,7.30
2023-03-17T10:46:40.398Z,6.00
2023-03-17T10:49:11.026Z,5.20
2023-03-17T10:51:40.831Z,5.30
2023-03-17T10:54:10.520Z,5.10
2023-03-17T10:56:42.303Z,5.80
2023-03-17T10:59:25.698Z,5.20
2023-03-17T11:01:54.508Z,5.10
2023-03-17T11:04:30.777Z,4.60
2023-03-17T11:06:59.761Z,5.10
2023-03-17T11:09:30.506Z,5.20
2023-03-17T11:12:13.953Z,5.10
2023-03-17T11:14:43.566Z,5.90
2023-03-17T11:17:41.579Z,4.70
2023-03-17T11:20:13.323Z,5.90
2023-03-17T11:22:43.124Z,4.80
2023-03-17T11:25:11.559Z,5.30
2023-03-17T11:27:47.326Z,5.60
2023-03-17T11:30:38.534Z,6.90
2023-03-17T11:33:13.388Z,6.80
2023-03-17T11:35:46.238Z,6.80
2023-03-17T11:38:33.651Z,8.00
2023-03-17T11:41:18.594Z,7.40
2023-03-17T11:43:52.391Z,7.40
2023-03-17T11:46:24.434Z,6.50
2023-03-17T11:49:00.736Z,7.20
2023-03-17T11:51:33.432Z,8.40
2023-03-17T11:54:13.642Z,7.30
2023-03-17T11:57:03.096Z,7.10
2023-03-17T11:59:31.585Z,7.20
2023-03-17T12:02:06.819Z,7.30
2023-03-17T12:04:38.099Z,6.30
2023-03-17T12:07:20.682Z,6.80
2023-03-17T12:09:57.229Z,6.20
2023-03-17T12:23:19.672Z,5.00
2023-03-17T12:25:55.170Z,5.40
2023-03-17T12:28:27.462Z,6.10
2023-03-17T12:31:00.030Z,5.10
2023-03-17T12:33:28.602Z,5.20
2023-03-17T12:35:58.451Z,5.50
2023-03-17T12:38:41.041Z,5.70
2023-03-17T12:41:23.979Z,5.40
2023-03-17T12:44:15.856Z,5.40
2023-03-17T12:46:43.721Z,5.30
2023-03-17T12:49:26.017Z,5.60
2023-03-17T12:51:59.280Z,5.80
2023-03-17T12:54:29.177Z,4.80
2023-03-17T12:57:24.394Z,5.00
2023-03-17T12:59:59.020Z,5.60
2023-03-17T13:02:29.929Z,5.20
2023-03-17T13:05:01.085Z,4.80
2023-03-17T13:07:48.283Z,5.50
2023-03-17T13:10:19.350Z,5.00
2023-03-17T13:12:47.145Z,6.10
2023-03-17T13:15:34.127Z,5.60
2023-03-17T13:18:31.430Z,5.70
2023-03-17T13:21:00.449Z,4.60
2023-03-17T13:23:36.086Z,5.30
2023-03-17T13:26:04.559Z,4.60
2023-03-17T13:28:35.588Z,4.00
2023-03-17T13:31:22.207Z,4.80
2023-03-17T13:33:52.240Z,5.60
2023-03-17T13:36:20.714Z,4.20
2023-03-17T13:39:15.138Z,4.40
2023-03-17T13:41:46.598Z,3.80
2023-03-17T13:44:31.048Z,4.30
2023-03-17T13:47:17.506Z,4.00
2023-03-17T13:49:47.380Z,4.60
2023-03-17T13:52:17.632Z,4.10
2023-03-17T13:54:50.696Z,4.40
2023-03-17T13:57:24.352Z,4.50
2023-03-17T13:59:55.584Z,3.80
2023-03-17T14:02:29.253Z,4.30
2023-03-17T14:05:01.984Z,3.90
2023-03-17T14:07:37.201Z,4.60
2023-03-17T14:10:05.626Z,4.10
2023-03-17T14:12:39.784Z,4.50
2023-03-17T14:15:13.992Z,4.00
2023-03-17T14:17:45.072Z,4.20
2023-03-17T14:20:15.775Z,4.20
2023-03-17T14:22:45.921Z,3.60
2023-03-17T14:25:18.273Z,4.50
2023-03-17T14:27:48.157Z,4.30
2023-03-17T14:30:18.187Z,4.40
2023-03-17T14:32:49.021Z,4.30
2023-03-17T14:35:16.996Z,4.50
2023-03-17T14:37:45.510Z,4.50
2023-03-17T14:40:20.828Z,4.30
2023-03-17T14:42:48.910Z,5.70
2023-03-17T14:45:26.874Z,7.10
2023-03-17T14:47:55.619Z,9.10
2023-03-17T14:50:30.069Z,6.80
2023-03-17T14:52:59.704Z,6.90
2023-03-17T14:55:35.871Z,7.90
2023-03-17T14:58:18.012Z,8.00
2023-03-17T15:00:49.920Z,7.50
2023-03-17T15:03:19.968Z,5.70
2023-03-17T15:05:48.921Z,8.50
2023-03-17T15:14:38.817Z,7.00
2023-03-17T15:17:14.310Z,7.60
2023-03-17T15:19:46.292Z,6.70
2023-03-17T15:22:26.043Z,5.60
2023-03-17T15:25:00.496Z,5.10
2023-03-17T15:27:29.664Z,4.30
2023-03-17T15:29:57.824Z,5.50
2023-03-17T15:32:27.008Z,4.70
2023-03-17T15:34:57.169Z,4.10
2023-03-17T15:37:29.309Z,5.70
2023-03-17T15:39:57.989Z,5.80
2023-03-17T15:42:35.885Z,4.60
2023-03-17T15:45:04.888Z,4.40
2023-03-17T15:47:33.997Z,5.20
2023-03-17T15:50:04.404Z,4.40
2023-03-17T15:52:32.439Z,4.80
2023-03-17T15:55:00.249Z,4.90
2023-03-17T15:57:28.406Z,6.20
2023-03-17T15:59:56.704Z,4.70
2023-03-17T16:02:38.686Z,3.90
2023-03-17T16:05:33.363Z,4.20
2023-03-17T16:08:01.636Z,4.10
2023-03-17T16:10:31.020Z,4.40
2023-03-17T16:12:59.046Z,4.50
2023-03-17T16:15:29.010Z,3.90
2023-03-17T16:17:59.331Z,3.80
2023-03-17T16:20:27.385Z,3.70
2023-03-17T16:22:56.193Z,4.40
2023-03-17T16:25:25.496Z,4.90
2023-03-17T16:27:54.795Z,4.80
2023-03-17T16:30:33.439Z,5.00
2023-03-17T16:33:02.733Z,5.20
2023-03-17T16:35:30.780Z,4.90
2023-03-17T16:37:58.938Z,6.00
2023-03-17T16:40:28.276Z,6.00
2023-03-17T16:42:56.401Z,6.90
2023-03-17T16:45:34.717Z,5.50
2023-03-17T16:48:04.057Z,5.50
2023-03-17T16:50:34.580Z,5.40
2023-03-17T16:53:02.419Z,5.50
2023-03-17T16:55:30.788Z,5.30
2023-03-17T16:58:00.926Z,5.80
2023-03-17T17:00:29.961Z,5.80
2023-03-17T17:02:59.259Z,8.40
2023-03-17T17:05:32.687Z,10.30
2023-03-17T17:08:47.710Z,7.70
2023-03-17T17:11:19.726Z,6.50
2023-03-17T17:13:49.078Z,5.30
2023-03-17T17:16:27.225Z,7.50
2023-03-17T17:18:55.389Z,11.20
2023-03-17T17:21:23.470Z,13.10
2023-03-17T17:23:53.232Z,12.70
2023-03-17T17:26:21.897Z,10.60
2023-03-17T17:28:49.934Z,10.20
2023-03-17T17:31:18.210Z,10.50
2023-03-17T17:33:46.207Z,7.90
2023-03-17T17:36:15.770Z,6.90
2023-03-17T17:38:43.744Z,10.20
2023-03-17T17:41:12.500Z,15.00
2023-03-17T17:43:40.404Z,10.50
2023-03-17T17:46:12.588Z,7.10
2023-03-17T17:48:40.623Z,5.10
2023-03-17T17:51:08.586Z,6.00
2023-03-17T17:53:37.021Z,5.50
2023-03-17T17:56:05.253Z,6.50
2023-03-17T17:58:33.470Z,9.60
2023-03-17T18:01:01.995Z,11.10
2023-03-17T18:03:32.410Z,10.00
2023-03-17T18:06:02.237Z,7.70
2023-03-17T18:13:04.739Z,5.60
2023-03-17T18:15:31.563Z,5.50
2023-03-17T18:17:58.046Z,4.30
2023-03-17T18:20:24.621Z,7.30
2023-03-17T18:22:51.067Z,9.90
2023-03-17T18:25:18.725Z,9.50
2023-03-17T18:27:46.570Z,8.80
2023-03-17T18:30:17.301Z,10.10
2023-03-17T18:32:44.758Z,8.50
2023-03-17T18:35:13.674Z,8.50
2023-03-17T18:37:40.600Z,9.80
2023-03-17T18:40:15.180Z,11.50
2023-03-17T18:42:43.702Z,11.60
2023-03-17T18:45:11.072Z,12.60
2023-03-17T18:47:38.384Z,13.10
2023-03-17T18:50:05.760Z,11.40
2023-03-17T18:52:33.772Z,10.30
2023-03-17T18:55:00.298Z,9.80
2023-03-17T18:57:27.095Z,9.90
2023-03-17T18:59:53.817Z,9.50
2023-03-17T19:02:20.579Z,8.80
2023-03-17T19:04:47.511Z,8.20
2023-03-17T19:07:14.282Z,8.40
2023-03-17T19:09:40.739Z,10.00
2023-03-17T19:12:07.573Z,9.60
2023-03-17T19:14:34.352Z,8.20
2023-03-17T19:17:00.808Z,8.20
2023-03-17T19:19:27.391Z,9.60
2023-03-17T19:21:53.913Z,10.70
2023-03-17T19:24:20.474Z,10.10
2023-03-17T19:26:47.235Z,11.00
2023-03-17T19:29:15.126Z,10.40
2023-03-17T19:31:41.903Z,10.10
2023-03-17T19:34:09.250Z,11.30
2023-03-17T19:36:39.283Z,10.70
2023-03-17T19:39:07.064Z,10.00
2023-03-17T19:44:24.739Z,9.40
2023-03-17T19:46:53.246Z,11.20
2023-03-17T19:49:21.299Z,10.50
2023-03-17T19:51:49.507Z,12.10
2023-03-17T19:54:18.861Z,10.10
2023-03-17T19:56:47.597Z,9.40
2023-03-17T19:59:15.743Z,9.50
2023-03-17T20:01:43.803Z,8.60
2023-03-17T20:04:17.738Z,8.40
2023-03-17T20:06:46.905Z,8.40
2023-03-17T20:09:14.885Z,9.50
2023-03-17T20:11:42.790Z,11.00
2023-03-17T20:14:11.116Z,9.60
2023-03-17T20:16:41.014Z,10.90
2023-03-17T20:19:09.360Z,10.00
2023-03-17T20:21:37.866Z,8.90
2023-03-17T20:24:05.957Z,8.80
2023-03-17T20:26:34.537Z,8.40
2023-03-17T20:29:03.017Z,8.20
2023-03-17T20:31:32.170Z,8.90
2023-03-17T20:34:00.148Z,7.80
2023-03-17T20:36:28.077Z,7.70
2023-03-17T20:38:56.173Z,9.10
2023-03-17T20:41:24.167Z,8.10
2023-03-17T20:43:52.130Z,7.90
2023-03-17T20:46:21.338Z,7.90
2023-03-17T20:48:51.701Z,8.20
2023-03-17T20:51:20.168Z,8.40
2023-03-17T20:53:49.153Z,7.80
2023-03-17T20:56:19.975Z,8.60
2023-03-17T20:58:48.634Z,8.20
2023-03-17T21:01:20.882Z,8.30
2023-03-17T21:03:49.609Z,8.20
2023-03-17T21:06:18.373Z,9.00
2023-03-17T21:08:46.809Z,8.20
2023-03-17T21:11:16.573Z,7.50
2023-03-17T21:13:44.522Z,7.00
2023-03-17T21:16:22.756Z,8.00
2023-03-17T21:18:51.143Z,8.20
2023-03-17T21:21:19.452Z,8.40
2023-03-17T21:23:47.618Z,9.10
2023-03-17T21:26:15.530Z,10.90
2023-03-17T21:28:43.468Z,9.00
2023-03-17T21:31:13.535Z,8.30
2023-03-17T21:33:42.182Z,7.80
2023-03-17T21:36:10.188Z,8.70
2023-03-17T21:38:38.071Z,8.00
2023-03-17T21:41:20.974Z,8.00
2023-03-17T21:43:48.928Z,8.20
2023-03-17T21:46:17.294Z,7.10
2023-03-17T21:48:45.660Z,7.50
2023-03-17T21:51:22.093Z,7.80
2023-03-17T21:53:53.945Z,7.70
2023-03-17T21:56:23.504Z,7.30
2023-03-17T21:58:51.482Z,8.00
2023-03-17T22:01:21.906Z,7.10
2023-03-17T22:03:51.201Z,8.50
2023-03-17T22:06:20.470Z,7.20
2023-03-17T22:08:49.016Z,7.60
2023-03-17T22:11:17.994Z,8.60
2023-03-17T22:13:47.471Z,7.90
2023-03-17T22:16:16.377Z,7.90
2023-03-17T22:18:47.652Z,7.40
2023-03-17T22:21:15.814Z,8.30
2023-03-17T22:23:44.609Z,7.50
2023-03-17T22:26:13.669Z,8.30
2023-03-17T22:28:42.170Z,9.10
2023-03-17T22:31:17.844Z,9.30
2023-03-17T22:33:47.011Z,9.10
2023-03-17T22:36:15.044Z,8.60
2023-03-17T22:38:42.993Z,8.00
2023-03-17T22:41:13.581Z,9.80
2023-03-17T22:43:42.443Z,13.10
2023-03-17T22:46:11.875Z,9.80
2023-03-17T22:48:40.599Z,9.30
2023-03-17T22:51:11.634Z,10.30
2023-03-17T22:53:40.508Z,9.20
2023-03-17T22:56:09.260Z,8.60
2023-03-17T22:58:37.236Z,9.40
2023-03-17T23:01:06.664Z,8.90
2023-03-17T23:03:35.393Z,10.10
2023-03-17T23:06:03.942Z,9.70
2023-03-17T23:08:35.139Z,10.60
2023-03-17T23:11:06.176Z,11.80
2023-03-17T23:13:35.408Z,11.10
2023-03-17T23:16:04.865Z,11.20
2023-03-17T23:18:32.846Z,11.20
2023-03-17T23:21:01.961Z,11.10
2023-03-17T23:23:29.736Z,11.10
2023-03-17T23:25:57.811Z,10.40
2023-03-17T23:28:27.185Z,12.10
2023-03-17T23:30:55.365Z,12.40
2023-03-17T23:33:25.632Z,12.00
2023-03-17T23:35:53.528Z,11.30
2023-03-17T23:38:21.659Z,11.50
2023-03-17T23:40:50.344Z,11.80
2023-03-17T23:43:18.347Z,11.50
2023-03-17T23:45:46.579Z,12.00
2023-03-17T23:48:15.352Z,11.70
2023-03-17T23:50:43.179Z,12.70
2023-03-17T23:53:11.730Z,11.90
2023-03-17T23:55:40.263Z,12.60
2023-03-17T23:58:08.157Z,13.50
